Time;durP1;ratioP1;P1;durP2;ratioP2;P2;SDS_P1;SDS_P2;PMS_P1;PMS_P2;Temp;Humidity;BMP_temperature;BMP_pressure;BME280_temperature;BME280_humidity;BME280_pressure;Samples;Min_cycle;Max_cycle;Signal;HPM_P1;HPM_P2
2022/07/14 00:01:43;;;;;;;4.60;1.15;;;;;;;17.75;68.63;102210.31;5071997;28;20048;-79
2022/07/14 00:04:08;;;;;;;5.72;1.48;;;;;;;17.76;68.84;102211.22;5072660;28;20107;-78
2022/07/14 00:06:34;;;;;;;2.42;1.13;;;;;;;17.77;68.53;102215.56;5057823;28;20044;-78
2022/07/14 00:08:59;;;;;;;4.35;1.30;;;;;;;17.76;68.53;102213.84;5076635;28;20039;-79
2022/07/14 00:11:25;;;;;;;5.30;1.27;;;;;;;17.77;68.91;102212.91;5058123;28;20036;-78
2022/07/14 00:13:51;;;;;;;5.18;1.40;;;;;;;17.76;68.70;102212.06;5076164;28;20043;-78
2022/07/14 00:16:16;;;;;;;3.38;1.23;;;;;;;17.75;68.57;102212.13;5053709;28;20048;-78
2022/07/14 00:18:45;;;;;;;5.63;1.40;;;;;;;17.73;68.80;102206.06;5058488;28;20123;-78
2022/07/14 00:21:14;;;;;;;3.88;1.35;;;;;;;17.72;68.73;102207.84;5058522;28;20056;-78
2022/07/14 00:23:41;;;;;;;3.55;1.15;;;;;;;17.71;68.66;102208.78;5057193;28;20059;-79
2022/07/14 00:26:06;;;;;;;6.63;1.50;;;;;;;17.70;68.99;102207.06;5058250;28;20043;-78
2022/07/14 00:28:32;;;;;;;4.97;1.50;;;;;;;17.69;68.75;102207.16;5076503;28;20069;-78
2022/07/14 00:31:03;;;;;;;4.70;1.38;;;;;;;17.68;68.85;102222.16;5065775;28;20289;-78
2022/07/14 00:33:30;;;;;;;5.20;1.60;;;;;;;17.67;68.89;102220.47;5041305;28;20028;-78
2022/07/14 00:35:55;;;;;;;6.53;1.63;;;;;;;17.65;68.88;102207.28;5076234;28;20301;-78
2022/07/14 00:38:20;;;;;;;5.20;1.33;;;;;;;17.65;68.79;102209.09;5055862;28;20036;-79
2022/07/14 00:40:46;;;;;;;3.83;1.42;;;;;;;17.64;68.75;102216.19;5076422;28;20214;-78
2022/07/14 00:43:11;;;;;;;4.50;1.38;;;;;;;17.62;68.72;102214.53;5075327;28;20079;-79
2022/07/14 00:45:37;;;;;;;4.75;1.05;;;;;;;17.61;68.91;102208.38;5076482;28;20044;-79
2022/07/14 00:48:02;;;;;;;2.25;1.05;;;;;;;17.61;69.11;102210.19;5056740;28;20262;-78
2022/07/14 00:50:27;;;;;;;7.57;1.65;;;;;;;17.60;69.17;102211.09;5057351;28;20045;-78
2022/07/14 00:52:53;;;;;;;4.18;1.38;;;;;;;17.59;69.10;102212.88;5073914;28;20059;-79
2022/07/14 00:55:19;;;;;;;5.25;1.30;;;;;;;17.59;69.16;102209.38;5079713;28;20028;-78
2022/07/14 00:57:46;;;;;;;6.03;1.60;;;;;;;17.58;69.01;102216.47;5079870;28;20229;-78
2022/07/14 01:00:13;;;;;;;5.30;1.45;;;;;;;17.56;69.04;102212.19;5061539;28;20051;-78
2022/07/14 01:05:06;;;;;;;3.35;1.33;;;;;;;17.53;69.21;102215.81;5061162;28;20048;-78
2022/07/14 01:07:31;;;;;;;6.90;1.52;;;;;;;17.52;69.13;102219.41;5063640;28;20040;-78
2022/07/14 01:09:57;;;;;;;3.13;1.23;;;;;;;17.50;69.22;102216.00;5045251;28;20044;-78
2022/07/14 01:12:22;;;;;;;3.67;1.17;;;;;;;17.49;69.28;102221.34;5079465;28;20320;-78
2022/07/14 01:14:48;;;;;;;3.90;1.20;;;;;;;17.47;69.26;102218.78;5045147;28;20059;-78
2022/07/14 01:17:14;;;;;;;3.88;1.30;;;;;;;17.44;69.20;102216.25;5061458;28;20239;-78
2022/07/14 01:19:39;;;;;;;4.13;1.35;;;;;;;17.42;69.39;102221.63;5079786;28;20107;-78
2022/07/14 01:22:05;;;;;;;5.18;1.20;;;;;;;17.40;69.24;102220.84;5079620;28;20047;-78
2022/07/14 01:24:31;;;;;;;2.35;0.98;;;;;;;17.38;69.28;102219.22;5079452;28;20255;-78
2022/07/14 01:26:57;;;;;;;3.30;1.10;;;;;;;17.35;69.20;102216.69;5079806;28;20097;-78
2022/07/14 01:29:23;;;;;;;4.18;1.35;;;;;;;17.33;69.35;102218.56;5061086;28;20115;-78
2022/07/14 01:31:49;;;;;;;4.15;1.60;;;;;;;17.30;69.59;102224.88;5079764;28;20059;-78
2022/07/14 01:34:14;;;;;;;5.82;1.40;;;;;;;17.27;69.33;102214.41;5079476;28;20239;-78
2022/07/14 01:36:40;;;;;;;3.97;1.30;;;;;;;17.24;69.60;102212.75;5079358;28;20064;-78
2022/07/14 01:39:06;;;;;;;5.43;1.40;;;;;;;17.23;69.56;102219.00;5079045;28;20029;-80
2022/07/14 01:41:32;;;;;;;4.60;1.05;;;;;;;17.21;69.59;102214.72;5079296;28;20054;-79
2022/07/14 01:43:58;;;;;;;5.00;1.58;;;;;;;17.19;69.42;102227.16;5060759;28;20032;-78
2022/07/14 01:46:24;;;;;;;6.20;1.30;;;;;;;17.16;69.32;102222.88;5079181;28;20077;-78
2022/07/14 01:48:49;;;;;;;4.90;1.17;;;;;;;17.13;69.71;102225.66;5078830;28;20601;-78
2022/07/14 01:51:15;;;;;;;4.28;1.10;;;;;;;17.13;69.67;102227.44;5079024;28;20055;-78
2022/07/14 01:53:41;;;;;;;3.67;1.20;;;;;;;17.10;69.81;102225.81;5078895;28;20363;-78
2022/07/14 01:56:07;;;;;;;5.00;1.50;;;;;;;17.07;69.57;102223.28;5060931;28;20028;-78
2022/07/14 01:58:33;;;;;;;3.85;1.23;;;;;;;17.05;69.85;102217.22;5060966;28;20124;-78
2022/07/14 02:03:44;;;;;;;3.05;1.10;;;;;;;17.00;69.80;102216.56;5055914;28;20055;-78
2022/07/14 02:06:10;;;;;;;2.13;1.05;;;;;;;16.97;70.06;102212.28;5077926;28;20040;-77
2022/07/14 02:08:35;;;;;;;2.33;1.05;;;;;;;16.96;69.94;102204.41;5078348;28;20035;-77
2022/07/14 02:13:44;;;;;;;4.15;1.35;;;;;;;16.91;70.14;102204.59;5078090;28;20431;-79
2022/07/14 02:16:10;;;;;;;3.58;1.30;;;;;;;16.88;69.94;102202.97;5078227;28;20075;-76
2022/07/14 02:18:35;;;;;;;3.45;1.02;;;;;;;16.86;70.17;102193.38;5079096;28;20119;-76
2022/07/14 02:21:00;;;;;;;4.65;1.27;;;;;;;16.84;70.54;102201.38;5078908;28;20040;-75
2022/07/14 02:23:26;;;;;;;3.50;1.25;;;;;;;16.81;70.24;102193.56;5080787;28;20105;-75
2022/07/14 02:25:51;;;;;;;4.75;1.50;;;;;;;16.79;70.15;102186.59;5080329;28;20142;-76
2022/07/14 02:28:17;;;;;;;4.72;1.33;;;;;;;16.78;70.50;102185.75;5079840;28;20048;-76
2022/07/14 02:30:42;;;;;;;3.88;0.90;;;;;;;16.77;70.41;102183.19;5080984;28;20215;-76
2022/07/14 02:33:09;;;;;;;3.92;1.13;;;;;;;16.75;70.31;102185.03;5080334;28;20220;-75
2022/07/14 02:35:35;;;;;;;2.63;1.30;;;;;;;16.71;70.43;102181.66;5061979;28;20032;-76
2022/07/14 02:38:00;;;;;;;5.47;1.30;;;;;;;16.70;70.55;102178.19;5080022;28;20099;-76
2022/07/14 02:40:26;;;;;;;4.13;1.17;;;;;;;16.67;70.57;102178.31;5078281;28;20036;-76
2022/07/14 02:42:52;;;;;;;1.83;1.00;;;;;;;16.64;70.54;102178.44;5078689;28;20315;-75
2022/07/14 02:45:17;;;;;;;2.42;1.30;;;;;;;16.62;70.46;102177.66;5077370;28;20035;-75
2022/07/14 02:47:43;;;;;;;2.38;1.15;;;;;;;16.62;70.52;102179.44;5080535;28;20086;-76
2022/07/14 02:50:10;;;;;;;3.38;1.20;;;;;;;16.58;70.66;102181.38;5079374;28;20016;-75
2022/07/14 02:52:35;;;;;;;4.60;1.50;;;;;;;16.56;70.70;102183.22;5079685;28;20254;-76
2022/07/14 02:55:01;;;;;;;3.60;1.20;;;;;;;16.54;70.96;102181.59;5078116;28;20125;-75
2022/07/14 02:57:26;;;;;;;3.50;1.25;;;;;;;16.52;70.70;102181.66;5076977;28;20046;-76
2022/07/14 02:59:51;;;;;;;3.58;1.30;;;;;;;16.50;70.59;102183.50;5078741;28;20135;-75
2022/07/14 03:02:17;;;;;;;3.28;1.17;;;;;;;16.48;70.83;102183.56;5078380;28;20197;-75
2022/07/14 03:04:42;;;;;;;3.92;1.33;;;;;;;16.46;70.78;102185.44;5078170;28;20056;-75
2022/07/14 03:07:08;;;;;;;3.58;1.27;;;;;;;16.45;71.03;102180.19;5078553;28;20228;-75
2022/07/14 03:09:33;;;;;;;4.07;1.60;;;;;;;16.43;70.92;102179.41;5077594;28;20273;-76
2022/07/14 03:11:59;;;;;;;5.25;1.85;;;;;;;16.38;70.77;102179.59;5070732;28;20052;-75
2022/07/14 03:14:24;;;;;;;4.05;1.60;;;;;;;16.37;70.90;102177.91;5051401;28;20047;-75
2022/07/14 03:16:49;;;;;;;4.32;1.23;;;;;;;16.35;70.68;102173.59;5077652;28;20340;-75
2022/07/14 03:19:15;;;;;;;1.77;1.10;;;;;;;16.31;70.84;102173.72;5079554;28;20024;-75
2022/07/14 03:21:41;;;;;;;3.85;1.40;;;;;;;16.30;71.11;102171.16;5061072;28;20033;-76
2022/07/14 03:24:06;;;;;;;7.35;1.38;;;;;;;16.28;70.75;102171.22;5060680;28;20070;-75
2022/07/14 03:26:32;;;;;;;3.78;1.38;;;;;;;16.27;70.91;102173.94;5078011;28;20064;-75
2022/07/14 03:28:57;;;;;;;6.07;1.48;;;;;;;16.23;71.11;102167.91;5066294;28;20043;-75
2022/07/14 03:31:22;;;;;;;4.38;1.20;;;;;;;16.23;71.16;102172.34;5075944;28;20100;-75
2022/07/14 03:33:48;;;;;;;2.95;1.13;;;;;;;16.20;71.09;102168.03;5071481;28;20040;-75
2022/07/14 03:36:13;;;;;;;2.17;1.10;;;;;;;16.19;71.28;102166.34;5071657;28;20036;-75
2022/07/14 03:38:38;;;;;;;2.97;1.20;;;;;;;16.16;71.34;102158.53;5076231;28;20312;-75
2022/07/14 03:41:05;;;;;;;2.83;1.52;;;;;;;16.17;71.50;102167.31;5076261;28;20040;-75
2022/07/14 03:43:30;;;;;;;3.42;1.30;;;;;;;16.16;71.35;102162.97;5076256;28;20099;-76
2022/07/14 03:45:56;;;;;;;1.88;1.15;;;;;;;16.14;71.64;102160.38;5076818;28;20028;-75
2022/07/14 03:48:21;;;;;;;5.75;1.40;;;;;;;16.13;71.37;102150.72;5077306;28;20067;-75
2022/07/14 03:50:48;;;;;;;3.03;1.30;;;;;;;16.12;71.69;102154.31;5077607;28;20059;-75
2022/07/14 03:53:13;;;;;;;1.13;1.02;;;;;;;16.11;71.74;102168.44;5077415;28;20076;-76
2022/07/14 03:55:39;;;;;;;3.30;1.38;;;;;;;16.10;71.84;102166.75;5077243;28;20045;-75
2022/07/14 03:58:04;;;;;;;10.70;1.73;;;;;;;16.09;71.94;102181.72;5076029;28;20068;-76
2022/07/14 04:00:30;;;;;;;6.82;1.55;;;;;;;16.07;71.99;102174.78;5076724;28;20047;-75
2022/07/14 04:02:55;;;;;;;5.68;1.35;;;;;;;16.05;71.74;102169.56;5077192;28;20071;-75
2022/07/14 04:05:21;;;;;;;4.63;1.65;;;;;;;16.06;72.04;102170.41;5077037;28;20363;-75
2022/07/14 04:07:47;;;;;;;3.88;1.15;;;;;;;16.05;71.74;102168.72;5077177;28;20040;-75
2022/07/14 04:10:12;;;;;;;4.10;1.23;;;;;;;16.03;71.90;102165.28;5058935;28;20045;-75
2022/07/14 04:12:38;;;;;;;3.75;1.48;;;;;;;16.03;72.08;102170.56;5077376;28;20267;-75
2022/07/14 04:15:03;;;;;;;4.53;1.20;;;;;;;16.01;72.48;102157.41;5077891;28;20106;-75
2022/07/14 04:17:29;;;;;;;4.38;1.42;;;;;;;16.01;72.64;102159.19;5092689;28;20056;-75
2022/07/14 04:19:54;;;;;;;3.28;1.10;;;;;;;16.01;72.73;102151.25;5097273;28;20111;-75
2022/07/14 04:22:19;;;;;;;3.72;1.27;;;;;;;16.01;72.92;102159.19;5097641;28;20046;-75
2022/07/14 04:24:45;;;;;;;3.38;1.17;;;;;;;16.01;73.04;102159.19;5079326;28;20050;-75
2022/07/14 04:27:10;;;;;;;5.57;1.40;;;;;;;16.00;72.66;102160.13;5080947;28;20063;-75
2022/07/14 04:29:36;;;;;;;3.58;1.23;;;;;;;15.99;73.00;102161.91;5083036;28;20040;-75
2022/07/14 04:32:02;;;;;;;2.08;1.30;;;;;;;15.99;73.20;102161.91;5063374;28;20047;-75
2022/07/14 04:34:27;;;;;;;4.85;1.52;;;;;;;15.99;73.28;102153.97;5096554;28;20135;-75
2022/07/14 04:36:54;;;;;;;5.47;1.60;;;;;;;15.99;73.21;102153.97;5066460;28;20062;-75
2022/07/14 04:39:19;;;;;;;2.95;1.30;;;;;;;16.00;73.29;102155.69;5101711;28;20400;-75
2022/07/14 04:41:45;;;;;;;3.80;1.65;;;;;;;15.98;73.45;102144.31;5101451;28;20099;-75
2022/07/14 04:44:10;;;;;;;5.03;1.35;;;;;;;15.97;73.84;102147.03;5100737;28;20040;-75
2022/07/14 04:46:36;;;;;;;4.45;1.55;;;;;;;15.96;73.86;102147.97;5100543;28;20051;-75
2022/07/14 04:52:04;;;;;;;4.68;1.50;;;;;;;15.92;74.11;102150.72;5101437;28;20108;-76
2022/07/14 04:54:30;;;;;;;2.95;1.50;;;;;;;15.91;74.08;102148.16;5086370;28;20039;-75
2022/07/14 04:56:56;;;;;;;3.10;1.30;;;;;;;15.91;73.77;102141.06;5065884;28;20035;-74
2022/07/14 04:59:21;;;;;;;5.70;1.50;;;;;;;15.92;74.02;102150.72;5101993;28;20256;-76
2022/07/14 05:01:47;;;;;;;2.75;1.65;;;;;;;15.93;73.74;102147.19;5081889;28;20040;-76
2022/07/14 05:04:12;;;;;;;5.65;1.98;;;;;;;15.94;74.00;102148.03;5098921;28;20392;-76
2022/07/14 05:06:37;;;;;;;3.63;1.50;;;;;;;15.96;73.80;102151.47;5080939;28;20404;-75
2022/07/14 05:09:03;;;;;;;7.25;2.20;;;;;;;15.96;73.84;102153.25;5101024;28;20040;-75
2022/07/14 05:11:30;;;;;;;5.20;1.90;;;;;;;15.96;74.15;102159.38;5101187;28;20129;-75
2022/07/14 05:13:56;;;;;;;4.78;1.80;;;;;;;15.96;74.01;102162.03;5081590;28;20062;-76
2022/07/14 05:16:21;;;;;;;5.60;1.80;;;;;;;15.97;74.36;102160.25;5099542;28;20255;-75
2022/07/14 05:18:47;;;;;;;4.03;1.38;;;;;;;15.97;74.44;102163.75;5082161;28;20044;-75
2022/07/14 05:21:13;;;;;;;2.78;1.33;;;;;;;15.95;74.08;102168.22;5100381;28;20156;-75
2022/07/14 05:23:39;;;;;;;3.17;1.30;;;;;;;15.95;74.62;102162.94;5101241;28;20243;-75
2022/07/14 05:26:12;;;;;;;3.35;1.60;;;;;;;15.98;74.42;102164.63;5082437;28;20040;-75
2022/07/14 05:28:38;;;;;;;4.57;1.55;;;;;;;15.98;74.35;102167.25;5101079;28;20040;-75
2022/07/14 05:31:03;;;;;;;2.47;1.17;;;;;;;16.00;74.24;102170.69;5101078;28;20034;-75
2022/07/14 05:33:29;;;;;;;3.75;1.65;;;;;;;16.00;74.17;102166.25;5100286;28;20305;-75
2022/07/14 05:35:55;;;;;;;1.67;1.00;;;;;;;16.02;74.19;102171.47;5081955;28;20036;-75
2022/07/14 05:38:21;;;;;;;3.60;1.20;;;;;;;16.02;74.22;102177.63;5081100;28;20062;-75
2022/07/14 05:40:46;;;;;;;2.03;1.02;;;;;;;16.03;74.16;102181.97;5095348;28;20239;-75
2022/07/14 05:43:12;;;;;;;3.92;1.70;;;;;;;16.05;74.16;102172.22;5073429;28;20044;-75
2022/07/14 05:45:37;;;;;;;5.43;1.48;;;;;;;16.05;74.20;102174.84;5072885;28;20035;-75
2022/07/14 05:48:03;;;;;;;3.25;1.50;;;;;;;16.05;74.49;102181.94;5073219;28;20028;-75
2022/07/14 05:50:28;;;;;;;5.50;1.73;;;;;;;16.05;74.44;102179.28;5096144;28;20043;-75
2022/07/14 05:52:54;;;;;;;2.53;1.42;;;;;;;16.05;74.50;102187.22;5091187;28;20273;-75
2022/07/14 05:55:21;;;;;;;2.95;1.52;;;;;;;16.04;74.57;102186.31;5073388;28;20220;-75
2022/07/14 05:57:47;;;;;;;3.08;1.73;;;;;;;16.04;74.71;102190.75;5088525;28;20040;-75
2022/07/14 06:00:12;;;;;;;3.75;1.58;;;;;;;16.04;74.49;102188.13;5080151;28;20051;-75
2022/07/14 06:02:38;;;;;;;4.65;1.40;;;;;;;16.02;74.79;102193.47;5082568;28;20047;-75
2022/07/14 06:05:03;;;;;;;1.83;1.20;;;;;;;16.03;74.62;102189.91;5101389;28;20039;-74
2022/07/14 06:07:29;;;;;;;4.00;1.70;;;;;;;16.03;74.82;102195.19;5082628;28;20036;-75
2022/07/14 06:09:54;;;;;;;5.85;1.85;;;;;;;16.01;74.94;102186.47;5081827;28;20048;-75
2022/07/14 06:12:19;;;;;;;6.85;1.50;;;;;;;15.99;74.72;102182.16;5083333;28;20023;-75
2022/07/14 06:14:45;;;;;;;8.30;1.48;;;;;;;15.96;75.90;102180.53;5102070;28;20062;-75
2022/07/14 06:17:10;;;;;;;5.97;1.60;;;;;;;15.95;75.47;102173.50;5106626;28;20077;-75
2022/07/14 06:19:36;;;;;;;5.03;1.40;;;;;;;15.97;75.70;102176.09;5086973;28;20039;-74
2022/07/14 06:22:06;;;;;;;2.58;1.25;;;;;;;16.00;75.56;102176.81;5072573;28;20054;-75
2022/07/14 06:24:32;;;;;;;8.73;1.67;;;;;;;16.01;75.51;102173.28;5099836;28;20036;-75
2022/07/14 06:26:58;;;;;;;5.78;1.70;;;;;;;16.02;75.16;102168.84;5091924;28;20115;-75
2022/07/14 06:29:23;;;;;;;4.38;1.50;;;;;;;16.02;75.39;102164.41;5082961;28;20121;-75
2022/07/14 06:31:51;;;;;;;5.55;1.20;;;;;;;16.05;75.31;102166.91;5064388;28;20036;-75
2022/07/14 06:34:16;;;;;;;14.10;2.05;;;;;;;16.08;75.69;102163.28;5063671;28;20066;-75
2022/07/14 06:36:42;;;;;;;3.63;1.25;;;;;;;16.11;75.59;102160.50;5096529;28;20040;-75
2022/07/14 06:39:07;;;;;;;3.40;1.33;;;;;;;16.14;75.41;102159.53;5099904;28;20108;-75
2022/07/14 06:41:32;;;;;;;5.03;1.08;;;;;;;16.15;75.31;102164.72;5100098;28;20413;-75
2022/07/14 06:43:58;;;;;;;9.43;1.20;;;;;;;16.15;74.93;102154.16;5082512;28;20104;-75
2022/07/14 06:46:23;;;;;;;3.47;1.13;;;;;;;16.16;75.18;102155.03;5081495;28;20062;-75
2022/07/14 06:48:48;;;;;;;6.53;1.73;;;;;;;16.16;75.43;102155.03;5080851;28;20043;-75
2022/07/14 06:51:14;;;;;;;6.45;1.35;;;;;;;16.17;75.40;102156.75;5065738;28;20028;-75
2022/07/14 06:53:39;;;;;;;13.73;2.42;;;;;;;16.18;75.53;102143.47;5099898;28;20043;-75
2022/07/14 06:56:05;;;;;;;7.05;1.67;;;;;;;16.19;75.90;102142.56;5098888;28;20116;-75
2022/07/14 06:58:30;;;;;;;3.75;1.30;;;;;;;16.21;75.93;102135.41;5061586;28;20741;-75
2022/07/14 07:00:56;;;;;;;7.47;1.50;;;;;;;16.23;75.85;102136.19;5081686;28;20047;-75
2022/07/14 07:03:21;;;;;;;6.28;1.25;;;;;;;16.24;76.22;102127.31;5080347;28;20268;-75
2022/07/14 07:08:31;;;;;;;6.57;1.38;;;;;;;16.31;76.15;102123.47;5074818;28;20055;-75
2022/07/14 07:10:57;;;;;;;6.60;1.63;;;;;;;16.37;75.92;102129.44;5100855;28;20039;-75
2022/07/14 07:13:23;;;;;;;7.43;1.70;;;;;;;16.38;76.52;102137.31;5069259;28;20236;-75
2022/07/14 07:15:48;;;;;;;4.22;1.35;;;;;;;16.42;76.03;102132.75;5080896;28;20362;-75
2022/07/14 07:18:14;;;;;;;5.40;1.25;;;;;;;16.45;76.03;102130.81;5096172;28;20051;-75
2022/07/14 07:20:39;;;;;;;6.53;1.35;;;;;;;16.47;75.81;102128.09;5097326;28;20321;-75
2022/07/14 07:23:05;;;;;;;5.15;1.33;;;;;;;16.50;75.54;102125.34;5066680;28;20046;-75
2022/07/14 07:25:31;;;;;;;3.53;1.42;;;;;;;16.53;75.28;102127.81;5097548;28;20055;-75
2022/07/14 07:27:58;;;;;;;1.35;0.95;;;;;;;16.56;75.47;102129.47;5097793;28;20070;-75
2022/07/14 07:30:23;;;;;;;2.85;1.08;;;;;;;16.59;75.43;102140.78;5095636;28;20137;-75
2022/07/14 07:32:48;;;;;;;1.70;0.90;;;;;;;16.62;74.97;102134.47;5095971;28;20035;-75
2022/07/14 07:35:14;;;;;;;7.32;1.55;;;;;;;16.64;74.86;102138.75;5095080;28;20036;-75
2022/07/14 07:37:39;;;;;;;4.72;2.17;;;;;;;16.67;74.75;102137.78;5076268;28;20048;-75
2022/07/14 07:40:05;;;;;;;4.00;0.80;;;;;;;16.68;74.50;102129.78;5059806;28;20025;-75
2022/07/14 07:42:31;;;;;;;4.50;0.90;;;;;;;16.72;74.44;102127.84;5078268;28;20069;-75
2022/07/14 07:44:57;;;;;;;2.33;1.00;;;;;;;16.75;74.34;102127.69;5060242;28;20219;-75
2022/07/14 07:47:24;;;;;;;7.15;1.50;;;;;;;16.76;74.47;102134.72;5095770;28;20241;-75
2022/07/14 07:49:50;;;;;;;3.83;1.08;;;;;;;16.78;74.33;102132.84;5051450;28;20065;-75
2022/07/14 07:52:16;;;;;;;4.68;1.05;;;;;;;16.80;73.78;102130.97;5052028;28;20086;-75
2022/07/14 07:54:41;;;;;;;4.00;1.15;;;;;;;16.80;73.44;102132.78;5056142;28;20033;-75
2022/07/14 07:57:07;;;;;;;3.58;1.67;;;;;;;16.84;73.36;102129.09;5054907;28;20095;-75
2022/07/14 07:59:32;;;;;;;2.38;1.02;;;;;;;16.86;73.27;102135.16;5046699;28;20037;-75
2022/07/14 08:01:58;;;;;;;2.72;1.00;;;;;;;16.89;73.39;102129.75;5053996;28;20120;-75
2022/07/14 08:04:23;;;;;;;3.38;1.48;;;;;;;16.92;73.24;102129.59;5054743;28;20059;-75
2022/07/14 08:06:48;;;;;;;3.97;1.40;;;;;;;16.94;72.87;102138.31;5041130;28;20045;-75
2022/07/14 08:09:14;;;;;;;4.60;1.20;;;;;;;16.98;72.58;102134.59;5054571;28;20285;-75
2022/07/14 08:11:40;;;;;;;3.50;1.10;;;;;;;17.04;72.32;102136.09;5058484;28;20036;-75
2022/07/14 08:14:47;;;;;;;3.03;1.20;;;;;;;17.08;71.61;102135.88;5055144;28;20393;-75
2022/07/14 08:16:53;;;;;;;1.23;0.57;;;;;;;17.10;71.02;102127.88;5057364;28;20044;-75
2022/07/14 08:19:18;;;;;;;1.85;0.88;;;;;;;17.12;71.02;102126.00;5060078;28;20101;-75
2022/07/14 08:21:43;;;;;;;2.05;0.88;;;;;;;17.16;70.49;102124.06;5058543;28;20040;-75
2022/07/14 08:24:09;;;;;;;4.35;0.82;;;;;;;17.16;69.91;102121.44;5050695;28;20029;-75
2022/07/14 08:26:34;;;;;;;4.68;1.30;;;;;;;17.16;68.53;102119.63;5042945;28;20060;-75
2022/07/14 08:29:00;;;;;;;4.63;1.30;;;;;;;17.16;67.51;102119.63;5060284;28;20249;-75
2022/07/14 08:31:25;;;;;;;2.80;0.73;;;;;;;17.17;65.93;102112.53;5050622;28;20042;-75
2022/07/14 08:33:50;;;;;;;1.58;0.98;;;;;;;17.20;66.42;102107.09;5053091;28;20330;-75
2022/07/14 08:36:16;;;;;;;5.00;1.15;;;;;;;17.22;66.40;102111.38;5056540;28;20043;-75
2022/07/14 08:38:41;;;;;;;2.72;0.98;;;;;;;17.24;66.75;102114.81;5037789;28;20052;-75
2022/07/14 08:41:08;;;;;;;4.50;1.30;;;;;;;17.28;67.09;102110.22;5047374;28;20026;-75
2022/07/14 08:43:35;;;;;;;6.07;1.17;;;;;;;17.31;67.86;102109.22;5047429;28;20051;-75
2022/07/14 08:46:03;;;;;;;14.57;1.20;;;;;;;17.34;68.06;102109.09;5050285;28;20367;-75
2022/07/14 08:48:29;;;;;;;;;;;;;;;17.36;67.26;102110.72;5040390;28;20244;-75
2022/07/14 08:50:56;;;;;;;5.43;1.27;;;;;;;17.40;66.08;102114.91;5055457;28;19920;-75
2022/07/14 08:53:23;;;;;;;1.90;1.00;;;;;;;17.43;66.03;102120.06;5053710;28;20029;-75
2022/07/14 08:55:48;;;;;;;2.78;0.93;;;;;;;17.46;65.59;102111.13;5060978;28;20159;-75
2022/07/14 08:58:13;;;;;;;4.25;1.20;;;;;;;17.51;65.98;102118.84;5049053;28;20069;-75
2022/07/14 09:00:39;;;;;;;5.60;1.00;;;;;;;17.60;64.71;102115.72;5045449;28;20041;-75
2022/07/14 09:03:05;;;;;;;8.38;1.40;;;;;;;17.63;64.41;102105.84;5042652;28;20252;-75
2022/07/14 09:05:30;;;;;;;3.72;1.10;;;;;;;17.69;65.40;102114.41;5050031;28;20049;-75
2022/07/14 09:07:57;;;;;;;1.48;0.85;;;;;;;17.71;66.07;102110.75;5049587;28;20029;-75
2022/07/14 09:10:25;;;;;;;8.70;3.40;;;;;;;17.76;65.33;102115.81;5051727;28;20033;-75
2022/07/14 09:12:51;;;;;;;5.22;2.00;;;;;;;17.81;65.62;102108.50;5048185;28;20041;-75
2022/07/14 09:18:12;;;;;;;4.30;1.50;;;;;;;17.97;64.71;102108.59;5051594;28;20504;-75
2022/07/14 09:20:38;;;;;;;5.70;1.70;;;;;;;18.04;64.53;102112.63;5043639;28;20248;-75
2022/07/14 09:23:04;;;;;;;4.18;1.00;;;;;;;18.09;64.72;102109.75;5039127;28;20235;-75
2022/07/14 09:25:32;;;;;;;3.88;1.83;;;;;;;18.15;64.72;102112.91;5059712;28;20025;-75
2022/07/14 09:27:57;;;;;;;5.25;0.98;;;;;;;18.17;63.69;102099.59;5059534;28;20044;-75
2022/07/14 09:30:24;;;;;;;3.90;1.15;;;;;;;18.21;64.33;102103.81;5052398;28;20140;-75
2022/07/14 09:32:58;;;;;;;2.35;0.70;;;;;;;18.25;62.23;102117.78;5060214;28;20248;-75
2022/07/14 09:35:36;;;;;;;1.77;0.70;;;;;;;18.27;62.13;102116.75;5061212;28;20037;-75
2022/07/14 09:38:20;;;;;;;2.70;0.93;;;;;;;18.30;63.05;102105.97;5057380;28;20064;-75
2022/07/14 09:40:47;;;;;;;1.50;0.75;;;;;;;18.33;61.53;102115.56;5051616;28;20041;-75
2022/07/14 09:43:14;;;;;;;5.43;0.82;;;;;;;18.35;59.54;102103.06;5047326;28;20048;-75
2022/07/14 09:45:42;;;;;;;1.67;0.77;;;;;;;18.36;60.03;102108.28;5058815;28;20033;-75
2022/07/14 09:48:16;;;;;;;2.60;0.93;;;;;;;18.40;60.40;102111.63;5051484;28;20328;-75
2022/07/14 09:50:57;;;;;;;2.72;0.90;;;;;;;18.42;60.54;102113.25;5055658;28;20032;-75
2022/07/14 09:53:31;;;;;;;1.67;0.85;;;;;;;18.45;60.91;102111.41;5036441;28;20043;-75
2022/07/14 09:55:57;;;;;;;2.03;0.90;;;;;;;18.47;60.51;102107.72;5054399;28;20029;-75
2022/07/14 09:58:31;;;;;;;2.28;0.70;;;;;;;18.53;59.37;102102.06;5051214;28;20080;-75
2022/07/14 10:01:11;;;;;;;3.53;0.80;;;;;;;18.58;60.56;102105.34;5051624;28;20039;-75
2022/07/14 10:03:41;;;;;;;4.20;0.90;;;;;;;18.63;60.11;102112.19;5049592;28;20336;-75
2022/07/14 10:06:07;;;;;;;2.00;0.70;;;;;;;18.66;59.76;102117.31;5058992;28;20063;-75
2022/07/14 10:08:40;;;;;;;4.25;1.02;;;;;;;18.69;61.53;102114.50;5050008;28;20352;-75
2022/07/14 10:11:06;;;;;;;1.30;0.85;;;;;;;18.72;61.08;102109.00;5059877;28;20282;-75
2022/07/14 10:13:32;;;;;;;3.83;0.80;;;;;;;18.75;60.37;102115.00;5051093;28;20101;-75
2022/07/14 10:15:58;;;;;;;5.80;1.25;;;;;;;18.77;59.74;102120.25;5055618;28;20032;-75
2022/07/14 10:18:26;;;;;;;5.13;1.52;;;;;;;18.85;60.16;102126.03;5048815;28;20025;-75
2022/07/14 10:20:57;;;;;;;3.17;1.15;;;;;;;18.93;60.39;102110.53;5056212;28;20121;-75
2022/07/14 10:23:23;;;;;;;3.10;0.98;;;;;;;18.99;61.02;102119.94;5051279;28;20100;-75
2022/07/14 10:25:51;;;;;;;2.53;1.10;;;;;;;19.01;60.85;102106.56;5053447;28;20048;-75
2022/07/14 10:28:17;;;;;;;2.05;0.90;;;;;;;19.03;62.34;102118.84;5047918;28;20068;-75
2022/07/14 10:30:48;;;;;;;1.42;0.73;;;;;;;19.06;62.45;102115.16;5054485;28;20057;-75
2022/07/14 10:33:37;;;;;;;1.55;0.68;;;;;;;19.08;63.19;102113.25;5053335;28;20028;-75
2022/07/14 10:36:11;;;;;;;1.70;1.10;;;;;;;19.11;61.46;102113.94;5045905;28;20218;-75
2022/07/14 10:38:55;;;;;;;1.23;0.80;;;;;;;19.13;61.59;102114.69;5049988;28;20044;-75
2022/07/14 10:42:05;;;;;;;1.63;0.75;;;;;;;19.17;62.14;102107.41;5082687;28;20029;-75
2022/07/14 10:44:33;;;;;;;2.08;0.95;;;;;;;19.20;61.28;102109.91;5047974;28;20372;-75
2022/07/14 10:47:10;;;;;;;2.78;0.85;;;;;;;19.24;61.11;102107.94;5054139;28;20040;-75
2022/07/14 10:50:00;;;;;;;1.75;0.60;;;;;;;19.28;61.88;102109.47;5049795;28;20036;-75
2022/07/14 10:52:28;;;;;;;1.25;0.88;;;;;;;19.31;62.62;102109.31;5043170;28;20364;-75
2022/07/14 10:55:22;;;;;;;3.25;1.15;;;;;;;19.29;60.85;102105.88;5049878;28;20036;-75
2022/07/14 10:58:00;;;;;;;3.97;1.27;;;;;;;19.31;60.80;102112.81;5055090;28;20054;-75
2022/07/14 11:00:41;;;;;;;4.43;1.25;;;;;;;19.35;60.46;102108.16;5042365;28;20064;-75
2022/07/14 11:03:26;;;;;;;5.15;1.17;;;;;;;19.38;60.06;102106.19;5044433;28;20041;-75
2022/07/14 11:06:02;;;;;;;2.67;0.80;;;;;;;19.43;58.63;102105.94;5056228;28;20227;-75
2022/07/14 11:08:28;;;;;;;2.47;1.10;;;;;;;19.48;59.13;102103.88;5041985;28;20040;-75
2022/07/14 11:10:54;;;;;;;1.25;0.70;;;;;;;19.55;59.87;102105.22;5053584;28;20121;-75
2022/07/14 11:13:20;;;;;;;3.30;1.00;;;;;;;19.62;59.93;102102.22;5051609;28;20039;-75
2022/07/14 11:15:51;;;;;;;4.28;1.10;;;;;;;19.66;57.59;102096.59;5056408;28;20112;-75
2022/07/14 11:18:24;;;;;;;3.45;0.98;;;;;;;19.67;58.37;102103.63;5051430;28;20138;-75
2022/07/14 11:20:50;;;;;;;2.90;0.80;;;;;;;19.67;58.36;102114.28;5053585;28;20036;-75
2022/07/14 11:23:21;;;;;;;4.13;1.00;;;;;;;19.69;59.01;102115.03;5044489;28;20033;-75
2022/07/14 11:25:51;;;;;;;3.92;1.08;;;;;;;19.70;59.42;102108.78;5046384;28;20384;-75
2022/07/14 11:28:33;;;;;;;2.70;0.95;;;;;;;19.75;60.01;102111.19;5034703;28;20059;-75
2022/07/14 11:31:21;;;;;;;5.15;1.00;;;;;;;19.80;60.18;102106.47;5038538;28;20229;-75
2022/07/14 11:36:35;;;;;;;2.03;0.98;;;;;;;19.88;60.29;102114.84;5045460;28;20128;-75
2022/07/14 11:39:16;;;;;;;1.02;0.57;;;;;;;19.92;60.30;102115.50;5049944;28;20048;-75
2022/07/14 11:41:47;;;;;;;4.53;1.00;;;;;;;19.96;59.82;102127.66;5045670;28;20095;-75
2022/07/14 11:44:31;;;;;;;3.33;0.93;;;;;;;20.01;59.58;102120.28;5048410;28;20056;-75